sensor_id;sensor_type;location;lat;lon;timestamp;P1;durP1;ratioP1;P2;durP2;ratioP2
8439;SDS011;4257;48.568;7.818;2022-10-19T00:02:26;4.25;;;3.08;;
8439;SDS011;4257;48.568;7.818;2022-10-19T00:05:13;6.53;;;3.22;;
8439;SDS011;4257;48.568;7.818;2022-10-19T00:08:00;4.53;;;2.95;;
8439;SDS011;4257;48.568;7.818;2022-10-19T00:10:47;8.55;;;4.25;;
8439;SDS011;4257;48.568;7.818;2022-10-19T00:13:34;5.43;;;3.08;;
8439;SDS011;4257;48.568;7.818;2022-10-19T00:16:21;7.72;;;3.75;;
8439;SDS011;4257;48.568;7.818;2022-10-19T00:19:12;7.82;;;3.88;;
8439;SDS011;4257;48.568;7.818;2022-10-19T00:22:00;7.13;;;3.35;;
8439;SDS011;4257;48.568;7.818;2022-10-19T00:24:47;6.80;;;3.28;;
8439;SDS011;4257;48.568;7.818;2022-10-19T00:27:34;5.90;;;3.25;;
8439;SDS011;4257;48.568;7.818;2022-10-19T00:30:22;4.70;;;2.50;;
8439;SDS011;4257;48.568;7.818;2022-10-19T00:33:09;7.22;;;1.95;;
8439;SDS011;4257;48.568;7.818;2022-10-19T00:35:57;6.20;;;2.97;;
8439;SDS011;4257;48.568;7.818;2022-10-19T00:38:44;4.68;;;3.00;;
8439;SDS011;4257;48.568;7.818;2022-10-19T00:41:32;10.43;;;2.92;;
8439;SDS011;4257;48.568;7.818;2022-10-19T00:47:45;7.47;;;2.92;;
8439;SDS011;4257;48.568;7.818;2022-10-19T00:50:32;11.38;;;3.70;;
8439;SDS011;4257;48.568;7.818;2022-10-19T00:53:20;6.78;;;2.92;;
8439;SDS011;4257;48.568;7.818;2022-10-19T00:56:11;8.43;;;4.03;;
8439;SDS011;4257;48.568;7.818;2022-10-19T00:58:59;7.10;;;2.92;;
8439;SDS011;4257;48.568;7.818;2022-10-19T01:01:48;8.00;;;3.42;;
8439;SDS011;4257;48.568;7.818;2022-10-19T01:04:35;10.32;;;3.45;;
8439;SDS011;4257;48.568;7.818;2022-10-19T01:07:24;6.72;;;3.33;;
8439;SDS011;4257;48.568;7.818;2022-10-19T01:10:13;9.60;;;2.50;;
8439;SDS011;4257;48.568;7.818;2022-10-19T01:13:06;6.13;;;3.17;;
8439;SDS011;4257;48.568;7.818;2022-10-19T01:16:01;7.80;;;3.30;;
8439;SDS011;4257;48.568;7.818;2022-10-19T01:18:51;28.33;;;2.83;;
8439;SDS011;4257;48.568;7.818;2022-10-19T01:21:42;7.97;;;3.10;;
8439;SDS011;4257;48.568;7.818;2022-10-19T01:24:38;8.05;;;3.63;;
8439;SDS011;4257;48.568;7.818;2022-10-19T01:27:36;6.22;;;3.20;;
8439;SDS011;4257;48.568;7.818;2022-10-19T01:30:40;9.82;;;3.00;;
8439;SDS011;4257;48.568;7.818;2022-10-19T01:33:31;3.70;;;2.67;;
8439;SDS011;4257;48.568;7.818;2022-10-19T01:36:25;4.40;;;2.80;;
8439;SDS011;4257;48.568;7.818;2022-10-19T01:39:20;8.18;;;3.25;;
8439;SDS011;4257;48.568;7.818;2022-10-19T01:42:11;10.18;;;3.72;;
8439;SDS011;4257;48.568;7.818;2022-10-19T01:45:02;5.53;;;2.55;;
8439;SDS011;4257;48.568;7.818;2022-10-19T01:47:53;6.45;;;2.70;;
8439;SDS011;4257;48.568;7.818;2022-10-19T01:50:43;8.63;;;3.40;;
8439;SDS011;4257;48.568;7.818;2022-10-19T01:53:34;6.25;;;2.85;;
8439;SDS011;4257;48.568;7.818;2022-10-19T01:56:26;6.07;;;2.97;;
8439;SDS011;4257;48.568;7.818;2022-10-19T01:59:13;7.68;;;3.55;;
8439;SDS011;4257;48.568;7.818;2022-10-19T02:02:01;4.03;;;2.88;;
8439;SDS011;4257;48.568;7.818;2022-10-19T02:04:50;5.78;;;2.70;;
8439;SDS011;4257;48.568;7.818;2022-10-19T02:07:37;5.82;;;2.90;;
8439;SDS011;4257;48.568;7.818;2022-10-19T02:10:26;6.60;;;3.22;;
8439;SDS011;4257;48.568;7.818;2022-10-19T02:13:14;6.68;;;2.55;;
8439;SDS011;4257;48.568;7.818;2022-10-19T02:16:02;6.82;;;1.92;;
8439;SDS011;4257;48.568;7.818;2022-10-19T02:18:52;5.13;;;2.58;;
8439;SDS011;4257;48.568;7.818;2022-10-19T02:21:41;5.10;;;3.10;;
8439;SDS011;4257;48.568;7.818;2022-10-19T02:24:28;6.10;;;2.75;;
8439;SDS011;4257;48.568;7.818;2022-10-19T02:27:15;4.15;;;2.67;;
8439;SDS011;4257;48.568;7.818;2022-10-19T02:30:02;5.15;;;3.30;;
8439;SDS011;4257;48.568;7.818;2022-10-19T02:32:49;4.40;;;2.15;;
8439;SDS011;4257;48.568;7.818;2022-10-19T02:35:36;8.18;;;3.15;;
8439;SDS011;4257;48.568;7.818;2022-10-19T02:38:25;6.25;;;3.42;;
8439;SDS011;4257;48.568;7.818;2022-10-19T02:41:13;5.90;;;2.28;;
8439;SDS011;4257;48.568;7.818;2022-10-19T02:44:03;4.80;;;2.58;;
8439;SDS011;4257;48.568;7.818;2022-10-19T02:46:52;5.43;;;2.95;;
8439;SDS011;4257;48.568;7.818;2022-10-19T02:49:40;3.10;;;2.15;;
8439;SDS011;4257;48.568;7.818;2022-10-19T02:52:28;4.80;;;2.30;;
8439;SDS011;4257;48.568;7.818;2022-10-19T02:55:17;4.70;;;2.42;;
8439;SDS011;4257;48.568;7.818;2022-10-19T02:58:04;4.63;;;3.10;;
8439;SDS011;4257;48.568;7.818;2022-10-19T03:00:51;5.13;;;2.97;;
8439;SDS011;4257;48.568;7.818;2022-10-19T03:03:38;3.55;;;2.15;;
8439;SDS011;4257;48.568;7.818;2022-10-19T03:06:24;3.83;;;2.45;;
8439;SDS011;4257;48.568;7.818;2022-10-19T03:09:11;5.45;;;3.08;;
8439;SDS011;4257;48.568;7.818;2022-10-19T03:12:00;6.10;;;2.72;;
8439;SDS011;4257;48.568;7.818;2022-10-19T03:14:47;7.28;;;2.85;;
8439;SDS011;4257;48.568;7.818;2022-10-19T03:17:33;4.07;;;2.20;;
8439;SDS011;4257;48.568;7.818;2022-10-19T03:20:20;4.90;;;1.95;;
8439;SDS011;4257;48.568;7.818;2022-10-19T03:23:07;5.88;;;2.63;;
8439;SDS011;4257;48.568;7.818;2022-10-19T03:25:54;7.65;;;3.03;;
8439;SDS011;4257;48.568;7.818;2022-10-19T03:28:42;3.15;;;2.88;;
8439;SDS011;4257;48.568;7.818;2022-10-19T03:31:30;4.95;;;2.40;;
8439;SDS011;4257;48.568;7.818;2022-10-19T03:34:16;3.25;;;1.92;;
8439;SDS011;4257;48.568;7.818;2022-10-19T03:37:03;4.13;;;2.58;;
8439;SDS011;4257;48.568;7.818;2022-10-19T03:39:50;5.80;;;1.80;;
8439;SDS011;4257;48.568;7.818;2022-10-19T03:42:37;3.92;;;2.08;;
8439;SDS011;4257;48.568;7.818;2022-10-19T03:45:25;5.13;;;2.10;;
8439;SDS011;4257;48.568;7.818;2022-10-19T03:48:12;3.15;;;1.65;;
8439;SDS011;4257;48.568;7.818;2022-10-19T03:50:59;9.15;;;3.45;;
8439;SDS011;4257;48.568;7.818;2022-10-19T03:53:47;4.53;;;2.13;;
8439;SDS011;4257;48.568;7.818;2022-10-19T03:56:37;6.63;;;2.65;;
8439;SDS011;4257;48.568;7.818;2022-10-19T03:59:23;4.55;;;2.95;;
8439;SDS011;4257;48.568;7.818;2022-10-19T04:02:12;4.72;;;3.08;;
8439;SDS011;4257;48.568;7.818;2022-10-19T04:04:59;6.43;;;3.50;;
8439;SDS011;4257;48.568;7.818;2022-10-19T04:07:46;5.80;;;3.35;;
8439;SDS011;4257;48.568;7.818;2022-10-19T04:10:32;3.05;;;2.15;;
8439;SDS011;4257;48.568;7.818;2022-10-19T04:13:19;7.43;;;2.90;;
8439;SDS011;4257;48.568;7.818;2022-10-19T04:16:06;5.60;;;3.17;;
8439;SDS011;4257;48.568;7.818;2022-10-19T04:18:55;11.18;;;3.50;;
8439;SDS011;4257;48.568;7.818;2022-10-19T04:21:42;5.13;;;2.60;;
8439;SDS011;4257;48.568;7.818;2022-10-19T04:24:29;3.70;;;2.40;;
8439;SDS011;4257;48.568;7.818;2022-10-19T04:27:16;5.13;;;2.40;;
8439;SDS011;4257;48.568;7.818;2022-10-19T04:30:03;4.88;;;2.42;;
8439;SDS011;4257;48.568;7.818;2022-10-19T04:32:51;6.28;;;2.70;;
8439;SDS011;4257;48.568;7.818;2022-10-19T04:35:39;3.15;;;1.92;;
8439;SDS011;4257;48.568;7.818;2022-10-19T04:38:26;3.72;;;2.28;;
8439;SDS011;4257;48.568;7.818;2022-10-19T04:41:14;4.63;;;2.95;;
8439;SDS011;4257;48.568;7.818;2022-10-19T04:44:03;5.88;;;2.78;;
8439;SDS011;4257;48.568;7.818;2022-10-19T04:46:50;2.95;;;1.92;;
8439;SDS011;4257;48.568;7.818;2022-10-19T04:49:37;6.65;;;2.72;;
8439;SDS011;4257;48.568;7.818;2022-10-19T04:52:25;5.85;;;3.10;;
8439;SDS011;4257;48.568;7.818;2022-10-19T04:55:12;4.13;;;2.65;;
8439;SDS011;4257;48.568;7.818;2022-10-19T04:57:59;4.20;;;2.10;;
8439;SDS011;4257;48.568;7.818;2022-10-19T05:00:46;6.40;;;3.03;;
8439;SDS011;4257;48.568;7.818;2022-10-19T05:03:33;6.88;;;2.60;;
8439;SDS011;4257;48.568;7.818;2022-10-19T05:06:20;4.47;;;2.45;;
8439;SDS011;4257;48.568;7.818;2022-10-19T05:09:08;5.50;;;3.28;;
8439;SDS011;4257;48.568;7.818;2022-10-19T05:11:55;4.50;;;2.33;;
8439;SDS011;4257;48.568;7.818;2022-10-19T05:14:42;5.38;;;3.38;;
8439;SDS011;4257;48.568;7.818;2022-10-19T05:17:29;8.07;;;3.22;;
8439;SDS011;4257;48.568;7.818;2022-10-19T05:20:16;5.13;;;3.25;;
8439;SDS011;4257;48.568;7.818;2022-10-19T05:23:03;4.55;;;2.30;;
8439;SDS011;4257;48.568;7.818;2022-10-19T05:25:58;4.38;;;2.22;;
8439;SDS011;4257;48.568;7.818;2022-10-19T05:28:46;4.82;;;2.42;;
8439;SDS011;4257;48.568;7.818;2022-10-19T05:31:33;6.57;;;3.33;;
8439;SDS011;4257;48.568;7.818;2022-10-19T05:34:20;3.33;;;2.40;;
8439;SDS011;4257;48.568;7.818;2022-10-19T05:37:07;4.32;;;2.63;;
8439;SDS011;4257;48.568;7.818;2022-10-19T05:39:54;8.15;;;2.75;;
8439;SDS011;4257;48.568;7.818;2022-10-19T05:42:42;6.35;;;2.80;;
8439;SDS011;4257;48.568;7.818;2022-10-19T05:45:29;6.50;;;2.50;;
8439;SDS011;4257;48.568;7.818;2022-10-19T05:48:16;5.78;;;2.10;;
8439;SDS011;4257;48.568;7.818;2022-10-19T05:51:03;4.00;;;2.63;;
8439;SDS011;4257;48.568;7.818;2022-10-19T05:53:51;6.72;;;2.28;;
8439;SDS011;4257;48.568;7.818;2022-10-19T05:56:38;5.60;;;3.03;;
8439;SDS011;4257;48.568;7.818;2022-10-19T05:59:27;7.20;;;2.75;;
8439;SDS011;4257;48.568;7.818;2022-10-19T06:02:13;5.15;;;2.67;;
8439;SDS011;4257;48.568;7.818;2022-10-19T06:05:00;6.57;;;3.13;;
8439;SDS011;4257;48.568;7.818;2022-10-19T06:07:47;5.43;;;3.08;;
8439;SDS011;4257;48.568;7.818;2022-10-19T06:10:34;4.50;;;2.65;;
8439;SDS011;4257;48.568;7.818;2022-10-19T06:13:21;3.17;;;2.13;;
8439;SDS011;4257;48.568;7.818;2022-10-19T06:16:09;5.43;;;2.33;;
8439;SDS011;4257;48.568;7.818;2022-10-19T06:18:57;4.65;;;2.40;;
8439;SDS011;4257;48.568;7.818;2022-10-19T06:21:44;5.90;;;2.58;;
8439;SDS011;4257;48.568;7.818;2022-10-19T06:24:31;6.95;;;3.30;;
8439;SDS011;4257;48.568;7.818;2022-10-19T06:27:18;6.03;;;2.65;;
8439;SDS011;4257;48.568;7.818;2022-10-19T06:30:05;6.35;;;2.53;;
8439;SDS011;4257;48.568;7.818;2022-10-19T06:32:54;3.08;;;2.22;;
8439;SDS011;4257;48.568;7.818;2022-10-19T06:35:41;3.30;;;2.47;;
8439;SDS011;4257;48.568;7.818;2022-10-19T06:38:28;3.15;;;2.75;;
8439;SDS011;4257;48.568;7.818;2022-10-19T06:41:15;5.93;;;2.88;;
8439;SDS011;4257;48.568;7.818;2022-10-19T06:44:03;5.15;;;2.60;;
8439;SDS011;4257;48.568;7.818;2022-10-19T06:46:49;3.60;;;1.75;;
8439;SDS011;4257;48.568;7.818;2022-10-19T06:49:37;5.18;;;2.45;;
8439;SDS011;4257;48.568;7.818;2022-10-19T06:52:24;3.60;;;2.75;;
8439;SDS011;4257;48.568;7.818;2022-10-19T06:55:11;4.80;;;2.55;;
8439;SDS011;4257;48.568;7.818;2022-10-19T06:57:58;3.90;;;2.15;;
8439;SDS011;4257;48.568;7.818;2022-10-19T07:00:52;5.75;;;2.88;;
8439;SDS011;4257;48.568;7.818;2022-10-19T07:03:41;4.25;;;2.22;;
8439;SDS011;4257;48.568;7.818;2022-10-19T07:06:29;5.65;;;2.03;;
8439;SDS011;4257;48.568;7.818;2022-10-19T07:09:16;2.75;;;1.98;;
8439;SDS011;4257;48.568;7.818;2022-10-19T07:12:04;7.45;;;3.05;;
8439;SDS011;4257;48.568;7.818;2022-10-19T07:14:51;6.20;;;2.10;;
8439;SDS011;4257;48.568;7.818;2022-10-19T07:17:39;5.53;;;2.53;;
8439;SDS011;4257;48.568;7.818;2022-10-19T07:20:26;3.90;;;2.17;;
8439;SDS011;4257;48.568;7.818;2022-10-19T07:23:14;3.22;;;2.08;;
8439;SDS011;4257;48.568;7.818;2022-10-19T07:26:05;2.35;;;1.80;;
8439;SDS011;4257;48.568;7.818;2022-10-19T07:28:54;5.93;;;2.20;;
8439;SDS011;4257;48.568;7.818;2022-10-19T07:31:42;4.50;;;2.08;;
8439;SDS011;4257;48.568;7.818;2022-10-19T07:34:29;4.25;;;2.20;;
8439;SDS011;4257;48.568;7.818;2022-10-19T07:37:16;8.07;;;2.55;;
8439;SDS011;4257;48.568;7.818;2022-10-19T07:40:04;3.88;;;2.22;;
8439;SDS011;4257;48.568;7.818;2022-10-19T07:42:52;10.13;;;3.50;;
8439;SDS011;4257;48.568;7.818;2022-10-19T07:45:39;6.70;;;3.58;;
8439;SDS011;4257;48.568;7.818;2022-10-19T07:48:26;7.90;;;3.92;;
8439;SDS011;4257;48.568;7.818;2022-10-19T07:51:13;5.55;;;2.70;;
8439;SDS011;4257;48.568;7.818;2022-10-19T07:54:01;5.57;;;3.33;;
8439;SDS011;4257;48.568;7.818;2022-10-19T07:56:50;6.28;;;2.22;;
8439;SDS011;4257;48.568;7.818;2022-10-19T07:59:37;4.75;;;2.30;;
8439;SDS011;4257;48.568;7.818;2022-10-19T08:02:24;4.03;;;2.55;;
8439;SDS011;4257;48.568;7.818;2022-10-19T08:05:10;3.42;;;2.28;;
8439;SDS011;4257;48.568;7.818;2022-10-19T08:07:57;4.03;;;2.40;;
8439;SDS011;4257;48.568;7.818;2022-10-19T08:10:44;4.40;;;2.75;;
8439;SDS011;4257;48.568;7.818;2022-10-19T08:13:32;21.92;;;4.47;;
8439;SDS011;4257;48.568;7.818;2022-10-19T08:16:21;4.60;;;2.25;;
8439;SDS011;4257;48.568;7.818;2022-10-19T08:19:12;3.08;;;2.03;;
8439;SDS011;4257;48.568;7.818;2022-10-19T08:22:00;4.43;;;2.03;;
8439;SDS011;4257;48.568;7.818;2022-10-19T08:24:47;6.22;;;2.65;;
8439;SDS011;4257;48.568;7.818;2022-10-19T08:27:34;4.00;;;2.15;;
8439;SDS011;4257;48.568;7.818;2022-10-19T08:30:22;5.05;;;2.22;;
8439;SDS011;4257;48.568;7.818;2022-10-19T08:33:09;7.53;;;3.25;;
8439;SDS011;4257;48.568;7.818;2022-10-19T08:35:58;3.10;;;1.77;;
8439;SDS011;4257;48.568;7.818;2022-10-19T08:38:45;4.13;;;2.85;;
8439;SDS011;4257;48.568;7.818;2022-10-19T08:41:34;8.32;;;4.03;;
8439;SDS011;4257;48.568;7.818;2022-10-19T08:44:44;6.35;;;2.75;;
8439;SDS011;4257;48.568;7.818;2022-10-19T08:47:48;3.13;;;2.13;;
8439;SDS011;4257;48.568;7.818;2022-10-19T08:50:41;4.03;;;2.42;;
8439;SDS011;4257;48.568;7.818;2022-10-19T08:53:30;5.20;;;2.55;;
8439;SDS011;4257;48.568;7.818;2022-10-19T08:56:26;6.25;;;2.15;;
8439;SDS011;4257;48.568;7.818;2022-10-19T08:59:19;4.50;;;2.83;;
8439;SDS011;4257;48.568;7.818;2022-10-19T09:02:09;4.53;;;2.70;;
8439;SDS011;4257;48.568;7.818;2022-10-19T09:05:02;3.45;;;2.47;;
8439;SDS011;4257;48.568;7.818;2022-10-19T09:07:52;3.83;;;2.13;;
8439;SDS011;4257;48.568;7.818;2022-10-19T09:10:40;3.28;;;1.52;;
8439;SDS011;4257;48.568;7.818;2022-10-19T09:13:30;4.88;;;3.03;;
8439;SDS011;4257;48.568;7.818;2022-10-19T09:16:20;4.43;;;2.60;;
8439;SDS011;4257;48.568;7.818;2022-10-19T09:19:10;5.50;;;1.83;;
8439;SDS011;4257;48.568;7.818;2022-10-19T09:22:01;3.95;;;2.65;;
8439;SDS011;4257;48.568;7.818;2022-10-19T09:24:50;4.82;;;2.33;;
8439;SDS011;4257;48.568;7.818;2022-10-19T09:27:38;4.22;;;2.28;;
8439;SDS011;4257;48.568;7.818;2022-10-19T09:30:26;4.13;;;2.25;;
8439;SDS011;4257;48.568;7.818;2022-10-19T09:33:17;2.17;;;1.50;;
8439;SDS011;4257;48.568;7.818;2022-10-19T09:36:08;2.33;;;1.85;;
8439;SDS011;4257;48.568;7.818;2022-10-19T09:38:56;2.55;;;1.70;;
8439;SDS011;4257;48.568;7.818;2022-10-19T09:41:44;2.97;;;1.35;;
8439;SDS011;4257;48.568;7.818;2022-10-19T09:44:32;3.28;;;2.40;;
8439;SDS011;4257;48.568;7.818;2022-10-19T09:47:23;3.55;;;1.83;;
8439;SDS011;4257;48.568;7.818;2022-10-19T09:50:16;4.00;;;2.22;;
8439;SDS011;4257;48.568;7.818;2022-10-19T09:53:04;3.47;;;2.28;;
8439;SDS011;4257;48.568;7.818;2022-10-19T09:56:05;3.72;;;2.40;;
8439;SDS011;4257;48.568;7.818;2022-10-19T09:58:53;4.35;;;2.45;;
8439;SDS011;4257;48.568;7.818;2022-10-19T10:01:42;2.15;;;1.95;;
8439;SDS011;4257;48.568;7.818;2022-10-19T10:04:29;2.60;;;1.80;;
8439;SDS011;4257;48.568;7.818;2022-10-19T10:07:16;3.83;;;1.60;;
8439;SDS011;4257;48.568;7.818;2022-10-19T10:10:10;3.38;;;2.03;;
8439;SDS011;4257;48.568;7.818;2022-10-19T10:13:05;10.00;;;2.55;;
8439;SDS011;4257;48.568;7.818;2022-10-19T10:15:54;4.68;;;1.75;;
8439;SDS011;4257;48.568;7.818;2022-10-19T10:18:47;2.63;;;1.75;;
8439;SDS011;4257;48.568;7.818;2022-10-19T10:21:44;3.85;;;2.28;;
8439;SDS011;4257;48.568;7.818;2022-10-19T10:24:32;3.35;;;1.77;;
8439;SDS011;4257;48.568;7.818;2022-10-19T10:27:24;4.13;;;2.08;;
8439;SDS011;4257;48.568;7.818;2022-10-19T10:30:16;3.58;;;1.48;;
8439;SDS011;4257;48.568;7.818;2022-10-19T10:33:04;3.80;;;1.58;;
8439;SDS011;4257;48.568;7.818;2022-10-19T10:35:51;3.33;;;1.92;;
8439;SDS011;4257;48.568;7.818;2022-10-19T10:38:42;2.70;;;1.73;;
8439;SDS011;4257;48.568;7.818;2022-10-19T10:41:34;4.35;;;2.47;;
8439;SDS011;4257;48.568;7.818;2022-10-19T10:44:23;2.28;;;1.65;;
8439;SDS011;4257;48.568;7.818;2022-10-19T10:47:15;4.85;;;2.35;;
8439;SDS011;4257;48.568;7.818;2022-10-19T10:50:05;4.65;;;2.55;;
8439;SDS011;4257;48.568;7.818;2022-10-19T10:52:56;2.22;;;1.85;;
8439;SDS011;4257;48.568;7.818;2022-10-19T10:55:44;2.50;;;1.35;;
8439;SDS011;4257;48.568;7.818;2022-10-19T10:58:41;4.32;;;1.70;;
8439;SDS011;4257;48.568;7.818;2022-10-19T11:01:34;4.07;;;2.47;;
8439;SDS011;4257;48.568;7.818;2022-10-19T11:04:25;3.70;;;1.60;;
8439;SDS011;4257;48.568;7.818;2022-10-19T11:07:15;1.63;;;1.42;;
8439;SDS011;4257;48.568;7.818;2022-10-19T11:10:05;2.40;;;1.33;;
8439;SDS011;4257;48.568;7.818;2022-10-19T11:12:58;1.88;;;1.20;;
8439;SDS011;4257;48.568;7.818;2022-10-19T11:15:51;3.15;;;1.52;;
8439;SDS011;4257;48.568;7.818;2022-10-19T11:18:40;2.25;;;1.25;;
8439;SDS011;4257;48.568;7.818;2022-10-19T11:21:30;3.30;;;1.92;;
8439;SDS011;4257;48.568;7.818;2022-10-19T11:24:23;1.75;;;1.23;;
8439;SDS011;4257;48.568;7.818;2022-10-19T11:27:19;3.50;;;2.15;;
8439;SDS011;4257;48.568;7.818;2022-10-19T11:30:12;3.05;;;2.20;;
8439;SDS011;4257;48.568;7.818;2022-10-19T11:33:02;1.88;;;1.55;;
8439;SDS011;4257;48.568;7.818;2022-10-19T11:35:51;3.13;;;1.48;;
8439;SDS011;4257;48.568;7.818;2022-10-19T11:38:44;1.75;;;0.95;;
8439;SDS011;4257;48.568;7.818;2022-10-19T11:41:36;2.83;;;1.55;;
8439;SDS011;4257;48.568;7.818;2022-10-19T11:44:27;1.65;;;1.55;;
8439;SDS011;4257;48.568;7.818;2022-10-19T11:47:34;1.75;;;1.30;;
8439;SDS011;4257;48.568;7.818;2022-10-19T11:50:38;2.40;;;1.13;;
8439;SDS011;4257;48.568;7.818;2022-10-19T11:53:32;2.42;;;1.13;;
8439;SDS011;4257;48.568;7.818;2022-10-19T11:56:24;3.55;;;1.88;;
8439;SDS011;4257;48.568;7.818;2022-10-19T11:59:16;2.30;;;1.17;;
8439;SDS011;4257;48.568;7.818;2022-10-19T12:02:12;1.88;;;1.15;;
8439;SDS011;4257;48.568;7.818;2022-10-19T12:05:05;1.92;;;1.00;;
8439;SDS011;4257;48.568;7.818;2022-10-19T12:07:59;1.52;;;1.30;;
8439;SDS011;4257;48.568;7.818;2022-10-19T12:10:55;2.95;;;1.60;;
8439;SDS011;4257;48.568;7.818;2022-10-19T12:13:49;2.85;;;1.60;;
8439;SDS011;4257;48.568;7.818;2022-10-19T12:16:39;2.72;;;1.60;;
8439;SDS011;4257;48.568;7.818;2022-10-19T12:19:30;3.15;;;1.98;;
8439;SDS011;4257;48.568;7.818;2022-10-19T12:22:27;1.30;;;1.10;;
8439;SDS011;4257;48.568;7.818;2022-10-19T12:25:16;2.08;;;1.25;;
8439;SDS011;4257;48.568;7.818;2022-10-19T12:28:04;1.27;;;1.00;;
8439;SDS011;4257;48.568;7.818;2022-10-19T12:30:52;4.68;;;2.08;;
8439;SDS011;4257;48.568;7.818;2022-10-19T12:33:42;4.78;;;1.48;;
8439;SDS011;4257;48.568;7.818;2022-10-19T12:36:34;1.60;;;1.35;;
8439;SDS011;4257;48.568;7.818;2022-10-19T12:39:29;1.95;;;1.17;;
8439;SDS011;4257;48.568;7.818;2022-10-19T12:42:24;2.53;;;1.98;;
8439;SDS011;4257;48.568;7.818;2022-10-19T12:45:20;2.08;;;1.33;;
8439;SDS011;4257;48.568;7.818;2022-10-19T12:48:16;2.90;;;0.98;;
8439;SDS011;4257;48.568;7.818;2022-10-19T12:51:05;2.97;;;1.45;;
8439;SDS011;4257;48.568;7.818;2022-10-19T12:54:05;2.47;;;1.48;;
8439;SDS011;4257;48.568;7.818;2022-10-19T12:56:54;3.03;;;1.02;;
8439;SDS011;4257;48.568;7.818;2022-10-19T12:59:42;1.42;;;1.10;;
8439;SDS011;4257;48.568;7.818;2022-10-19T13:02:30;1.75;;;1.30;;
8439;SDS011;4257;48.568;7.818;2022-10-19T13:05:21;1.52;;;1.17;;
8439;SDS011;4257;48.568;7.818;2022-10-19T13:08:11;2.22;;;1.48;;
8439;SDS011;4257;48.568;7.818;2022-10-19T13:11:11;2.63;;;1.55;;
8439;SDS011;4257;48.568;7.818;2022-10-19T13:14:00;1.35;;;0.93;;
8439;SDS011;4257;48.568;7.818;2022-10-19T13:19:45;1.88;;;1.27;;
8439;SDS011;4257;48.568;7.818;2022-10-19T13:22:34;1.98;;;0.95;;
8439;SDS011;4257;48.568;7.818;2022-10-19T13:25:22;1.98;;;1.27;;
8439;SDS011;4257;48.568;7.818;2022-10-19T13:28:34;1.60;;;1.48;;
8439;SDS011;4257;48.568;7.818;2022-10-19T13:31:22;1.85;;;1.20;;
8439;SDS011;4257;48.568;7.818;2022-10-19T13:34:10;1.30;;;0.95;;
8439;SDS011;4257;48.568;7.818;2022-10-19T13:37:01;1.77;;;1.65;;
8439;SDS011;4257;48.568;7.818;2022-10-19T13:39:50;1.85;;;1.08;;
8439;SDS011;4257;48.568;7.818;2022-10-19T13:42:37;1.58;;;1.20;;
8439;SDS011;4257;48.568;7.818;2022-10-19T13:45:24;3.15;;;1.42;;
8439;SDS011;4257;48.568;7.818;2022-10-19T13:48:12;1.00;;;0.90;;
8439;SDS011;4257;48.568;7.818;2022-10-19T13:51:05;3.95;;;1.48;;
8439;SDS011;4257;48.568;7.818;2022-10-19T13:54:03;0.93;;;0.60;;
8439;SDS011;4257;48.568;7.818;2022-10-19T13:57:09;1.23;;;0.98;;
8439;SDS011;4257;48.568;7.818;2022-10-19T14:00:04;2.17;;;1.08;;
8439;SDS011;4257;48.568;7.818;2022-10-19T14:06:11;1.00;;;0.73;;
8439;SDS011;4257;48.568;7.818;2022-10-19T14:12:29;1.10;;;0.90;;
8439;SDS011;4257;48.568;7.818;2022-10-19T14:15:21;1.00;;;0.45;;
8439;SDS011;4257;48.568;7.818;2022-10-19T14:18:18;1.23;;;1.08;;
8439;SDS011;4257;48.568;7.818;2022-10-19T14:21:09;2.35;;;0.93;;
8439;SDS011;4257;48.568;7.818;2022-10-19T14:23:56;0.77;;;0.63;;
8439;SDS011;4257;48.568;7.818;2022-10-19T14:26:42;3.05;;;0.77;;
8439;SDS011;4257;48.568;7.818;2022-10-19T14:29:32;0.88;;;0.60;;
8439;SDS011;4257;48.568;7.818;2022-10-19T14:32:23;2.17;;;0.80;;
8439;SDS011;4257;48.568;7.818;2022-10-19T14:35:15;0.85;;;0.50;;
8439;SDS011;4257;48.568;7.818;2022-10-19T14:38:05;1.52;;;1.27;;
8439;SDS011;4257;48.568;7.818;2022-10-19T14:40:53;1.20;;;0.65;;
8439;SDS011;4257;48.568;7.818;2022-10-19T14:43:40;2.50;;;1.23;;
8439;SDS011;4257;48.568;7.818;2022-10-19T14:46:29;3.30;;;1.15;;
8439;SDS011;4257;48.568;7.818;2022-10-19T14:49:17;1.23;;;0.80;;
8439;SDS011;4257;48.568;7.818;2022-10-19T14:52:04;2.13;;;1.00;;
8439;SDS011;4257;48.568;7.818;2022-10-19T14:54:51;0.93;;;0.63;;
8439;SDS011;4257;48.568;7.818;2022-10-19T14:57:39;0.63;;;0.40;;
8439;SDS011;4257;48.568;7.818;2022-10-19T15:00:27;3.13;;;0.82;;
8439;SDS011;4257;48.568;7.818;2022-10-19T15:03:18;1.33;;;0.77;;
8439;SDS011;4257;48.568;7.818;2022-10-19T15:06:12;0.95;;;0.73;;
8439;SDS011;4257;48.568;7.818;2022-10-19T15:09:03;1.05;;;0.65;;
8439;SDS011;4257;48.568;7.818;2022-10-19T15:11:51;1.77;;;0.63;;
8439;SDS011;4257;48.568;7.818;2022-10-19T15:14:38;1.20;;;0.85;;
8439;SDS011;4257;48.568;7.818;2022-10-19T15:17:26;2.00;;;0.52;;
8439;SDS011;4257;48.568;7.818;2022-10-19T15:20:23;0.80;;;0.68;;
8439;SDS011;4257;48.568;7.818;2022-10-19T15:26:18;3.53;;;2.50;;
8439;SDS011;4257;48.568;7.818;2022-10-19T15:29:07;5.50;;;1.95;;
8439;SDS011;4257;48.568;7.818;2022-10-19T15:31:55;1.45;;;1.10;;
8439;SDS011;4257;48.568;7.818;2022-10-19T15:34:41;2.67;;;1.13;;
8439;SDS011;4257;48.568;7.818;2022-10-19T15:37:31;1.20;;;0.70;;
8439;SDS011;4257;48.568;7.818;2022-10-19T15:40:18;3.03;;;0.68;;
8439;SDS011;4257;48.568;7.818;2022-10-19T15:43:31;3.30;;;1.70;;
8439;SDS011;4257;48.568;7.818;2022-10-19T15:46:23;2.03;;;0.90;;
8439;SDS011;4257;48.568;7.818;2022-10-19T15:52:49;2.95;;;1.67;;
8439;SDS011;4257;48.568;7.818;2022-10-19T15:55:36;4.18;;;2.08;;
8439;SDS011;4257;48.568;7.818;2022-10-19T15:58:23;2.03;;;1.33;;
8439;SDS011;4257;48.568;7.818;2022-10-19T16:01:10;2.55;;;1.45;;
8439;SDS011;4257;48.568;7.818;2022-10-19T16:04:01;3.33;;;0.98;;
8439;SDS011;4257;48.568;7.818;2022-10-19T16:06:49;0.90;;;0.65;;
8439;SDS011;4257;48.568;7.818;2022-10-19T16:09:37;0.77;;;0.70;;
8439;SDS011;4257;48.568;7.818;2022-10-19T16:12:24;4.22;;;0.90;;
8439;SDS011;4257;48.568;7.818;2022-10-19T16:15:12;1.20;;;0.60;;
8439;SDS011;4257;48.568;7.818;2022-10-19T16:18:00;1.17;;;1.08;;
8439;SDS011;4257;48.568;7.818;2022-10-19T16:20:47;3.45;;;1.45;;
8439;SDS011;4257;48.568;7.818;2022-10-19T16:23:34;2.35;;;1.60;;
8439;SDS011;4257;48.568;7.818;2022-10-19T16:26:24;3.00;;;1.63;;
8439;SDS011;4257;48.568;7.818;2022-10-19T16:29:12;3.88;;;1.40;;
8439;SDS011;4257;48.568;7.818;2022-10-19T16:31:58;2.40;;;0.98;;
8439;SDS011;4257;48.568;7.818;2022-10-19T16:34:45;1.17;;;1.00;;
8439;SDS011;4257;48.568;7.818;2022-10-19T16:37:32;2.53;;;1.42;;
8439;SDS011;4257;48.568;7.818;2022-10-19T16:40:19;4.03;;;1.65;;
8439;SDS011;4257;48.568;7.818;2022-10-19T16:43:08;1.67;;;1.15;;
8439;SDS011;4257;48.568;7.818;2022-10-19T16:45:54;2.28;;;1.30;;
8439;SDS011;4257;48.568;7.818;2022-10-19T16:48:41;1.65;;;1.00;;
8439;SDS011;4257;48.568;7.818;2022-10-19T16:51:32;1.83;;;1.30;;
8439;SDS011;4257;48.568;7.818;2022-10-19T16:54:20;3.22;;;1.75;;
8439;SDS011;4257;48.568;7.818;2022-10-19T16:57:07;3.90;;;1.75;;
8439;SDS011;4257;48.568;7.818;2022-10-19T16:59:55;6.40;;;1.67;;
8439;SDS011;4257;48.568;7.818;2022-10-19T17:02:42;3.97;;;0.93;;
8439;SDS011;4257;48.568;7.818;2022-10-19T17:05:29;1.70;;;1.02;;
8439;SDS011;4257;48.568;7.818;2022-10-19T17:08:16;1.83;;;1.05;;
8439;SDS011;4257;48.568;7.818;2022-10-19T17:11:09;0.77;;;0.70;;
8439;SDS011;4257;48.568;7.818;2022-10-19T17:13:58;2.22;;;1.50;;
8439;SDS011;4257;48.568;7.818;2022-10-19T17:16:47;1.55;;;0.73;;
8439;SDS011;4257;48.568;7.818;2022-10-19T17:19:34;2.17;;;1.15;;
8439;SDS011;4257;48.568;7.818;2022-10-19T17:22:21;2.30;;;1.77;;
8439;SDS011;4257;48.568;7.818;2022-10-19T17:25:08;2.03;;;1.02;;
8439;SDS011;4257;48.568;7.818;2022-10-19T17:27:55;1.60;;;1.13;;
8439;SDS011;4257;48.568;7.818;2022-10-19T17:30:42;2.88;;;0.77;;
8439;SDS011;4257;48.568;7.818;2022-10-19T17:33:30;1.30;;;0.80;;
8439;SDS011;4257;48.568;7.818;2022-10-19T17:36:18;2.13;;;0.75;;
8439;SDS011;4257;48.568;7.818;2022-10-19T17:39:06;1.05;;;0.60;;
8439;SDS011;4257;48.568;7.818;2022-10-19T17:41:54;1.70;;;1.35;;
8439;SDS011;4257;48.568;7.818;2022-10-19T17:44:45;1.90;;;1.13;;
8439;SDS011;4257;48.568;7.818;2022-10-19T17:47:32;4.82;;;1.20;;
8439;SDS011;4257;48.568;7.818;2022-10-19T17:50:20;2.95;;;2.05;;
8439;SDS011;4257;48.568;7.818;2022-10-19T17:53:07;1.65;;;1.33;;